sensor_id;sensor_type;location;lat;lon;timestamp;P1;durP1;ratioP1;P2;durP2;ratioP2
15230;SDS011;32569;51.762;8.564;2022-07-04T00:01:10;4.93;;;2.80;;
15230;SDS011;32569;51.762;8.564;2022-07-04T00:03:37;3.13;;;2.83;;
15230;SDS011;32569;51.762;8.564;2022-07-04T00:06:03;3.67;;;2.90;;
15230;SDS011;32569;51.762;8.564;2022-07-04T00:08:31;3.10;;;2.90;;
15230;SDS011;32569;51.762;8.564;2022-07-04T00:10:58;3.17;;;2.90;;
15230;SDS011;32569;51.762;8.564;2022-07-04T00:13:25;4.17;;;3.77;;
15230;SDS011;32569;51.762;8.564;2022-07-04T00:15:52;3.77;;;3.40;;
15230;SDS011;32569;51.762;8.564;2022-07-04T00:18:18;4.50;;;4.20;;
15230;SDS011;32569;51.762;8.564;2022-07-04T00:20:45;4.60;;;4.20;;
15230;SDS011;32569;51.762;8.564;2022-07-04T00:23:11;4.60;;;4.30;;
15230;SDS011;32569;51.762;8.564;2022-07-04T00:25:39;4.60;;;4.00;;
15230;SDS011;32569;51.762;8.564;2022-07-04T00:28:06;4.60;;;3.97;;
15230;SDS011;32569;51.762;8.564;2022-07-04T00:30:33;4.03;;;3.73;;
15230;SDS011;32569;51.762;8.564;2022-07-04T00:32:59;4.50;;;4.10;;
15230;SDS011;32569;51.762;8.564;2022-07-04T00:35:26;4.60;;;4.20;;
15230;SDS011;32569;51.762;8.564;2022-07-04T00:37:53;4.13;;;3.70;;
15230;SDS011;32569;51.762;8.564;2022-07-04T00:40:19;4.17;;;3.77;;
15230;SDS011;32569;51.762;8.564;2022-07-04T00:42:47;4.53;;;4.13;;
15230;SDS011;32569;51.762;8.564;2022-07-04T00:45:14;4.17;;;3.77;;
15230;SDS011;32569;51.762;8.564;2022-07-04T00:47:40;4.30;;;4.00;;
15230;SDS011;32569;51.762;8.564;2022-07-04T00:50:08;4.37;;;3.97;;
15230;SDS011;32569;51.762;8.564;2022-07-04T00:52:34;4.80;;;4.40;;
15230;SDS011;32569;51.762;8.564;2022-07-04T00:55:01;4.37;;;4.07;;
15230;SDS011;32569;51.762;8.564;2022-07-04T00:57:28;4.93;;;4.60;;
15230;SDS011;32569;51.762;8.564;2022-07-04T00:59:57;3.90;;;3.60;;
15230;SDS011;32569;51.762;8.564;2022-07-04T01:02:23;4.33;;;4.03;;
15230;SDS011;32569;51.762;8.564;2022-07-04T01:04:50;4.23;;;3.83;;
15230;SDS011;32569;51.762;8.564;2022-07-04T01:07:17;4.37;;;4.07;;
15230;SDS011;32569;51.762;8.564;2022-07-04T01:09:43;4.63;;;4.27;;
15230;SDS011;32569;51.762;8.564;2022-07-04T01:12:11;4.50;;;4.10;;
15230;SDS011;32569;51.762;8.564;2022-07-04T01:14:49;4.57;;;4.17;;
15230;SDS011;32569;51.762;8.564;2022-07-04T01:17:17;4.53;;;4.23;;
15230;SDS011;32569;51.762;8.564;2022-07-04T01:19:44;4.57;;;4.17;;
15230;SDS011;32569;51.762;8.564;2022-07-04T01:22:12;4.30;;;3.90;;
15230;SDS011;32569;51.762;8.564;2022-07-04T01:24:39;4.80;;;4.37;;
15230;SDS011;32569;51.762;8.564;2022-07-04T01:27:06;4.90;;;4.50;;
15230;SDS011;32569;51.762;8.564;2022-07-04T01:29:32;4.90;;;4.50;;
15230;SDS011;32569;51.762;8.564;2022-07-04T01:32:02;5.47;;;4.30;;
15230;SDS011;32569;51.762;8.564;2022-07-04T01:34:30;5.23;;;4.70;;
15230;SDS011;32569;51.762;8.564;2022-07-04T01:36:58;4.77;;;4.37;;
15230;SDS011;32569;51.762;8.564;2022-07-04T01:39:26;5.03;;;4.23;;
15230;SDS011;32569;51.762;8.564;2022-07-04T01:41:52;4.50;;;4.20;;
15230;SDS011;32569;51.762;8.564;2022-07-04T01:44:19;4.83;;;4.40;;
15230;SDS011;32569;51.762;8.564;2022-07-04T01:46:46;4.93;;;4.47;;
15230;SDS011;32569;51.762;8.564;2022-07-04T01:49:13;6.13;;;4.43;;
15230;SDS011;32569;51.762;8.564;2022-07-04T01:51:43;4.87;;;4.50;;
15230;SDS011;32569;51.762;8.564;2022-07-04T01:54:10;5.00;;;4.67;;
15230;SDS011;32569;51.762;8.564;2022-07-04T01:56:38;5.27;;;4.77;;
15230;SDS011;32569;51.762;8.564;2022-07-04T01:59:05;4.90;;;4.50;;
15230;SDS011;32569;51.762;8.564;2022-07-04T02:01:32;5.13;;;4.63;;
15230;SDS011;32569;51.762;8.564;2022-07-04T02:03:59;4.60;;;4.20;;
15230;SDS011;32569;51.762;8.564;2022-07-04T02:06:27;5.47;;;4.97;;
15230;SDS011;32569;51.762;8.564;2022-07-04T02:08:54;5.00;;;4.53;;
15230;SDS011;32569;51.762;8.564;2022-07-04T02:11:40;5.40;;;4.90;;
15230;SDS011;32569;51.762;8.564;2022-07-04T02:14:25;4.87;;;4.47;;
15230;SDS011;32569;51.762;8.564;2022-07-04T02:16:52;4.67;;;4.37;;
15230;SDS011;32569;51.762;8.564;2022-07-04T02:19:19;4.60;;;4.20;;
15230;SDS011;32569;51.762;8.564;2022-07-04T02:21:45;6.80;;;4.50;;
15230;SDS011;32569;51.762;8.564;2022-07-04T02:24:12;5.33;;;4.43;;
15230;SDS011;32569;51.762;8.564;2022-07-04T02:26:40;7.37;;;4.70;;
15230;SDS011;32569;51.762;8.564;2022-07-04T02:29:07;4.67;;;4.27;;
15230;SDS011;32569;51.762;8.564;2022-07-04T02:31:33;4.87;;;4.37;;
15230;SDS011;32569;51.762;8.564;2022-07-04T02:34:00;4.93;;;4.37;;
15230;SDS011;32569;51.762;8.564;2022-07-04T02:36:27;5.00;;;3.87;;
15230;SDS011;32569;51.762;8.564;2022-07-04T02:38:53;4.27;;;3.87;;
15230;SDS011;32569;51.762;8.564;2022-07-04T02:41:20;3.90;;;3.60;;
15230;SDS011;32569;51.762;8.564;2022-07-04T02:43:48;4.13;;;3.80;;
15230;SDS011;32569;51.762;8.564;2022-07-04T02:46:14;4.17;;;3.80;;
15230;SDS011;32569;51.762;8.564;2022-07-04T02:48:41;4.27;;;3.87;;
15230;SDS011;32569;51.762;8.564;2022-07-04T02:51:07;4.27;;;3.97;;
15230;SDS011;32569;51.762;8.564;2022-07-04T02:53:34;3.63;;;3.33;;
15230;SDS011;32569;51.762;8.564;2022-07-04T02:56:01;3.87;;;3.57;;
15230;SDS011;32569;51.762;8.564;2022-07-04T02:58:28;3.80;;;3.50;;
15230;SDS011;32569;51.762;8.564;2022-07-04T03:00:57;3.03;;;2.83;;
15230;SDS011;32569;51.762;8.564;2022-07-04T03:03:23;3.63;;;3.27;;
15230;SDS011;32569;51.762;8.564;2022-07-04T03:05:50;3.90;;;3.33;;
15230;SDS011;32569;51.762;8.564;2022-07-04T03:08:17;3.40;;;3.10;;
15230;SDS011;32569;51.762;8.564;2022-07-04T03:10:44;3.93;;;3.30;;
15230;SDS011;32569;51.762;8.564;2022-07-04T03:13:11;3.80;;;3.40;;
15230;SDS011;32569;51.762;8.564;2022-07-04T03:15:37;4.27;;;3.20;;
15230;SDS011;32569;51.762;8.564;2022-07-04T03:18:05;3.83;;;3.40;;
15230;SDS011;32569;51.762;8.564;2022-07-04T03:20:32;3.60;;;3.30;;
15230;SDS011;32569;51.762;8.564;2022-07-04T03:22:58;3.97;;;3.57;;
15230;SDS011;32569;51.762;8.564;2022-07-04T03:25:25;3.73;;;2.83;;
15230;SDS011;32569;51.762;8.564;2022-07-04T03:27:52;3.00;;;2.73;;
15230;SDS011;32569;51.762;8.564;2022-07-04T03:30:18;3.00;;;2.80;;
15230;SDS011;32569;51.762;8.564;2022-07-04T03:32:45;3.47;;;3.17;;
15230;SDS011;32569;51.762;8.564;2022-07-04T03:35:13;3.07;;;2.73;;
15230;SDS011;32569;51.762;8.564;2022-07-04T03:37:40;4.40;;;3.20;;
15230;SDS011;32569;51.762;8.564;2022-07-04T03:40:07;3.40;;;3.10;;
15230;SDS011;32569;51.762;8.564;2022-07-04T03:42:34;2.97;;;2.77;;
15230;SDS011;32569;51.762;8.564;2022-07-04T03:45:01;3.30;;;3.10;;
15230;SDS011;32569;51.762;8.564;2022-07-04T03:47:28;3.50;;;3.20;;
15230;SDS011;32569;51.762;8.564;2022-07-04T03:49:54;4.20;;;3.57;;
15230;SDS011;32569;51.762;8.564;2022-07-04T03:52:22;3.60;;;3.23;;
15230;SDS011;32569;51.762;8.564;2022-07-04T03:54:49;3.60;;;3.23;;
15230;SDS011;32569;51.762;8.564;2022-07-04T03:57:16;3.67;;;3.37;;
15230;SDS011;32569;51.762;8.564;2022-07-04T03:59:42;3.93;;;3.10;;
15230;SDS011;32569;51.762;8.564;2022-07-04T04:02:09;4.13;;;3.20;;
15230;SDS011;32569;51.762;8.564;2022-07-04T04:04:36;5.50;;;3.20;;
15230;SDS011;32569;51.762;8.564;2022-07-04T04:07:17;4.63;;;2.97;;
15230;SDS011;32569;51.762;8.564;2022-07-04T04:09:44;5.47;;;2.97;;
15230;SDS011;32569;51.762;8.564;2022-07-04T04:12:11;3.60;;;3.30;;
15230;SDS011;32569;51.762;8.564;2022-07-04T04:14:38;3.20;;;2.90;;
15230;SDS011;32569;51.762;8.564;2022-07-04T04:17:04;4.03;;;2.73;;
15230;SDS011;32569;51.762;8.564;2022-07-04T04:19:31;2.90;;;2.70;;
15230;SDS011;32569;51.762;8.564;2022-07-04T04:21:59;3.10;;;2.77;;
15230;SDS011;32569;51.762;8.564;2022-07-04T04:24:25;2.83;;;2.60;;
15230;SDS011;32569;51.762;8.564;2022-07-04T04:26:53;4.17;;;2.80;;
15230;SDS011;32569;51.762;8.564;2022-07-04T04:29:20;3.00;;;2.70;;
15230;SDS011;32569;51.762;8.564;2022-07-04T04:31:47;2.97;;;2.77;;
15230;SDS011;32569;51.762;8.564;2022-07-04T04:34:13;3.10;;;2.80;;
15230;SDS011;32569;51.762;8.564;2022-07-04T04:36:40;3.63;;;3.00;;
15230;SDS011;32569;51.762;8.564;2022-07-04T04:39:06;3.50;;;3.00;;
15230;SDS011;32569;51.762;8.564;2022-07-04T04:41:33;3.27;;;2.97;;
15230;SDS011;32569;51.762;8.564;2022-07-04T04:44:01;3.77;;;2.90;;
15230;SDS011;32569;51.762;8.564;2022-07-04T04:46:29;3.13;;;2.80;;
15230;SDS011;32569;51.762;8.564;2022-07-04T04:48:55;3.17;;;2.90;;
15230;SDS011;32569;51.762;8.564;2022-07-04T04:51:22;3.53;;;2.87;;
15230;SDS011;32569;51.762;8.564;2022-07-04T04:53:49;4.07;;;2.40;;
15230;SDS011;32569;51.762;8.564;2022-07-04T04:56:15;3.53;;;2.47;;
15230;SDS011;32569;51.762;8.564;2022-07-04T04:58:42;2.63;;;2.43;;
15230;SDS011;32569;51.762;8.564;2022-07-04T05:01:10;4.07;;;2.70;;
15230;SDS011;32569;51.762;8.564;2022-07-04T05:03:37;2.63;;;2.17;;
15230;SDS011;32569;51.762;8.564;2022-07-04T05:06:03;3.20;;;2.37;;
15230;SDS011;32569;51.762;8.564;2022-07-04T05:08:30;3.43;;;2.40;;
15230;SDS011;32569;51.762;8.564;2022-07-04T05:10:57;2.63;;;2.13;;
15230;SDS011;32569;51.762;8.564;2022-07-04T05:13:23;2.50;;;2.30;;
15230;SDS011;32569;51.762;8.564;2022-07-04T05:15:50;2.90;;;2.60;;
15230;SDS011;32569;51.762;8.564;2022-07-04T05:18:18;4.57;;;2.63;;
15230;SDS011;32569;51.762;8.564;2022-07-04T05:20:44;2.40;;;2.20;;
15230;SDS011;32569;51.762;8.564;2022-07-04T05:23:11;3.20;;;2.50;;
15230;SDS011;32569;51.762;8.564;2022-07-04T05:25:38;2.60;;;2.40;;
15230;SDS011;32569;51.762;8.564;2022-07-04T05:28:04;3.53;;;2.63;;
15230;SDS011;32569;51.762;8.564;2022-07-04T05:30:31;2.90;;;2.60;;
15230;SDS011;32569;51.762;8.564;2022-07-04T05:32:58;3.10;;;2.90;;
15230;SDS011;32569;51.762;8.564;2022-07-04T05:35:28;3.07;;;2.83;;
15230;SDS011;32569;51.762;8.564;2022-07-04T05:37:55;4.60;;;3.57;;
15230;SDS011;32569;51.762;8.564;2022-07-04T05:40:22;3.67;;;3.30;;
15230;SDS011;32569;51.762;8.564;2022-07-04T05:42:48;3.70;;;3.40;;
15230;SDS011;32569;51.762;8.564;2022-07-04T05:45:15;4.23;;;3.83;;
15230;SDS011;32569;51.762;8.564;2022-07-04T05:47:42;4.00;;;3.53;;
15230;SDS011;32569;51.762;8.564;2022-07-04T05:50:08;5.67;;;4.23;;
15230;SDS011;32569;51.762;8.564;2022-07-04T05:52:37;4.40;;;3.63;;
15230;SDS011;32569;51.762;8.564;2022-07-04T05:55:04;4.60;;;3.93;;
15230;SDS011;32569;51.762;8.564;2022-07-04T05:57:31;4.37;;;3.80;;
15230;SDS011;32569;51.762;8.564;2022-07-04T05:59:58;6.83;;;4.67;;
15230;SDS011;32569;51.762;8.564;2022-07-04T06:02:25;6.40;;;4.50;;
15230;SDS011;32569;51.762;8.564;2022-07-04T06:04:51;4.63;;;4.10;;
15230;SDS011;32569;51.762;8.564;2022-07-04T06:07:18;5.20;;;4.70;;
15230;SDS011;32569;51.762;8.564;2022-07-04T06:09:46;5.33;;;4.83;;
15230;SDS011;32569;51.762;8.564;2022-07-04T06:12:13;5.43;;;4.50;;
15230;SDS011;32569;51.762;8.564;2022-07-04T06:14:39;4.73;;;4.33;;
15230;SDS011;32569;51.762;8.564;2022-07-04T06:17:06;4.93;;;4.53;;
15230;SDS011;32569;51.762;8.564;2022-07-04T06:19:32;5.73;;;4.90;;
15230;SDS011;32569;51.762;8.564;2022-07-04T06:21:59;6.57;;;5.87;;
15230;SDS011;32569;51.762;8.564;2022-07-04T06:24:26;5.70;;;5.10;;
15230;SDS011;32569;51.762;8.564;2022-07-04T06:26:54;6.77;;;5.13;;
15230;SDS011;32569;51.762;8.564;2022-07-04T06:29:21;6.17;;;5.53;;
15230;SDS011;32569;51.762;8.564;2022-07-04T06:31:47;5.97;;;5.43;;
15230;SDS011;32569;51.762;8.564;2022-07-04T06:34:14;6.00;;;4.87;;
15230;SDS011;32569;51.762;8.564;2022-07-04T06:36:58;6.80;;;5.53;;
15230;SDS011;32569;51.762;8.564;2022-07-04T06:39:25;6.47;;;5.77;;
15230;SDS011;32569;51.762;8.564;2022-07-04T06:41:52;5.53;;;5.03;;
15230;SDS011;32569;51.762;8.564;2022-07-04T06:44:20;6.57;;;5.70;;
15230;SDS011;32569;51.762;8.564;2022-07-04T06:46:47;6.17;;;5.67;;
15230;SDS011;32569;51.762;8.564;2022-07-04T06:49:13;5.57;;;5.10;;
15230;SDS011;32569;51.762;8.564;2022-07-04T06:51:40;6.13;;;5.53;;
15230;SDS011;32569;51.762;8.564;2022-07-04T06:54:07;5.37;;;4.93;;
15230;SDS011;32569;51.762;8.564;2022-07-04T06:56:33;5.53;;;4.97;;
15230;SDS011;32569;51.762;8.564;2022-07-04T06:59:01;5.40;;;4.90;;
15230;SDS011;32569;51.762;8.564;2022-07-04T07:01:29;6.30;;;5.70;;
15230;SDS011;32569;51.762;8.564;2022-07-04T07:03:56;6.87;;;5.03;;
15230;SDS011;32569;51.762;8.564;2022-07-04T07:06:23;5.17;;;4.67;;
15230;SDS011;32569;51.762;8.564;2022-07-04T07:08:49;6.57;;;4.83;;
15230;SDS011;32569;51.762;8.564;2022-07-04T07:11:16;5.10;;;4.60;;
15230;SDS011;32569;51.762;8.564;2022-07-04T07:13:45;7.30;;;5.10;;
15230;SDS011;32569;51.762;8.564;2022-07-04T07:16:14;6.03;;;5.03;;
15230;SDS011;32569;51.762;8.564;2022-07-04T07:18:41;6.33;;;4.90;;
15230;SDS011;32569;51.762;8.564;2022-07-04T07:21:09;4.73;;;4.33;;
15230;SDS011;32569;51.762;8.564;2022-07-04T07:23:37;4.97;;;4.43;;
15230;SDS011;32569;51.762;8.564;2022-07-04T07:26:04;5.90;;;4.20;;
15230;SDS011;32569;51.762;8.564;2022-07-04T07:28:31;5.00;;;3.80;;
15230;SDS011;32569;51.762;8.564;2022-07-04T07:30:58;4.17;;;3.87;;
15230;SDS011;32569;51.762;8.564;2022-07-04T07:33:26;4.37;;;3.90;;
15230;SDS011;32569;51.762;8.564;2022-07-04T07:35:52;5.30;;;3.17;;
15230;SDS011;32569;51.762;8.564;2022-07-04T07:38:19;5.77;;;3.60;;
15230;SDS011;32569;51.762;8.564;2022-07-04T07:40:46;4.67;;;3.40;;
15230;SDS011;32569;51.762;8.564;2022-07-04T07:43:12;4.53;;;4.00;;
15230;SDS011;32569;51.762;8.564;2022-07-04T07:45:39;3.93;;;3.50;;
15230;SDS011;32569;51.762;8.564;2022-07-04T07:48:06;4.27;;;2.93;;
15230;SDS011;32569;51.762;8.564;2022-07-04T07:50:34;3.93;;;3.60;;
15230;SDS011;32569;51.762;8.564;2022-07-04T07:53:01;3.73;;;3.33;;
15230;SDS011;32569;51.762;8.564;2022-07-04T07:55:28;3.83;;;2.97;;
15230;SDS011;32569;51.762;8.564;2022-07-04T07:57:54;3.57;;;2.53;;
15230;SDS011;32569;51.762;8.564;2022-07-04T08:00:23;3.97;;;2.53;;
15230;SDS011;32569;51.762;8.564;2022-07-04T08:02:50;2.67;;;2.47;;
15230;SDS011;32569;51.762;8.564;2022-07-04T08:05:35;5.43;;;2.60;;
15230;SDS011;32569;51.762;8.564;2022-07-04T08:08:03;6.27;;;2.30;;
15230;SDS011;32569;51.762;8.564;2022-07-04T08:10:32;6.20;;;2.50;;
15230;SDS011;32569;51.762;8.564;2022-07-04T08:12:58;2.60;;;2.40;;
15230;SDS011;32569;51.762;8.564;2022-07-04T08:15:25;3.50;;;1.90;;
15230;SDS011;32569;51.762;8.564;2022-07-04T08:17:52;2.63;;;1.80;;
15230;SDS011;32569;51.762;8.564;2022-07-04T08:20:19;4.00;;;2.60;;
15230;SDS011;32569;51.762;8.564;2022-07-04T08:22:47;2.90;;;2.43;;
15230;SDS011;32569;51.762;8.564;2022-07-04T08:25:13;2.53;;;2.00;;
15230;SDS011;32569;51.762;8.564;2022-07-04T08:27:41;2.30;;;2.10;;
15230;SDS011;32569;51.762;8.564;2022-07-04T08:30:08;4.10;;;2.20;;
15230;SDS011;32569;51.762;8.564;2022-07-04T08:32:35;2.13;;;1.90;;
15230;SDS011;32569;51.762;8.564;2022-07-04T08:35:02;6.37;;;2.10;;
15230;SDS011;32569;51.762;8.564;2022-07-04T08:37:30;1.97;;;1.77;;
15230;SDS011;32569;51.762;8.564;2022-07-04T08:39:58;3.00;;;2.40;;
15230;SDS011;32569;51.762;8.564;2022-07-04T08:42:24;2.43;;;2.23;;
15230;SDS011;32569;51.762;8.564;2022-07-04T08:44:53;4.23;;;2.00;;
15230;SDS011;32569;51.762;8.564;2022-07-04T08:47:21;2.63;;;2.00;;
15230;SDS011;32569;51.762;8.564;2022-07-04T08:49:52;1.97;;;1.50;;
15230;SDS011;32569;51.762;8.564;2022-07-04T08:52:27;5.07;;;2.70;;
15230;SDS011;32569;51.762;8.564;2022-07-04T08:55:02;2.27;;;1.53;;
15230;SDS011;32569;51.762;8.564;2022-07-04T08:57:47;1.80;;;1.70;;
15230;SDS011;32569;51.762;8.564;2022-07-04T09:00:32;3.40;;;1.80;;
15230;SDS011;32569;51.762;8.564;2022-07-04T09:03:00;2.80;;;2.30;;
15230;SDS011;32569;51.762;8.564;2022-07-04T09:05:28;2.20;;;2.00;;
15230;SDS011;32569;51.762;8.564;2022-07-04T09:07:57;2.63;;;2.10;;
15230;SDS011;32569;51.762;8.564;2022-07-04T09:10:25;2.20;;;1.97;;
15230;SDS011;32569;51.762;8.564;2022-07-04T09:12:52;2.10;;;1.90;;
15230;SDS011;32569;51.762;8.564;2022-07-04T09:15:19;1.90;;;1.80;;
15230;SDS011;32569;51.762;8.564;2022-07-04T09:17:46;3.40;;;2.20;;
15230;SDS011;32569;51.762;8.564;2022-07-04T09:20:14;3.33;;;2.40;;
15230;SDS011;32569;51.762;8.564;2022-07-04T09:22:41;3.80;;;2.00;;
15230;SDS011;32569;51.762;8.564;2022-07-04T09:25:08;3.07;;;1.77;;
15230;SDS011;32569;51.762;8.564;2022-07-04T09:27:39;2.83;;;1.50;;
15230;SDS011;32569;51.762;8.564;2022-07-04T09:30:10;1.47;;;1.37;;
15230;SDS011;32569;51.762;8.564;2022-07-04T09:32:38;1.90;;;1.67;;
15230;SDS011;32569;51.762;8.564;2022-07-04T09:35:07;3.73;;;1.80;;
15230;SDS011;32569;51.762;8.564;2022-07-04T09:37:35;3.00;;;1.70;;
15230;SDS011;32569;51.762;8.564;2022-07-04T09:40:04;1.90;;;1.80;;
15230;SDS011;32569;51.762;8.564;2022-07-04T09:42:36;2.73;;;1.60;;
15230;SDS011;32569;51.762;8.564;2022-07-04T09:45:06;2.40;;;1.57;;
15230;SDS011;32569;51.762;8.564;2022-07-04T09:47:37;3.67;;;1.90;;
15230;SDS011;32569;51.762;8.564;2022-07-04T09:50:05;2.20;;;1.93;;
15230;SDS011;32569;51.762;8.564;2022-07-04T09:52:46;3.00;;;2.70;;
15230;SDS011;32569;51.762;8.564;2022-07-04T09:55:22;1.67;;;1.57;;
15230;SDS011;32569;51.762;8.564;2022-07-04T09:57:51;1.70;;;1.10;;
15230;SDS011;32569;51.762;8.564;2022-07-04T10:00:19;4.33;;;1.50;;
15230;SDS011;32569;51.762;8.564;2022-07-04T10:02:47;2.43;;;1.40;;
15230;SDS011;32569;51.762;8.564;2022-07-04T10:05:18;2.93;;;2.00;;
15230;SDS011;32569;51.762;8.564;2022-07-04T10:07:46;2.17;;;1.60;;
15230;SDS011;32569;51.762;8.564;2022-07-04T10:10:20;1.93;;;1.30;;
15230;SDS011;32569;51.762;8.564;2022-07-04T10:13:00;2.30;;;1.40;;
15230;SDS011;32569;51.762;8.564;2022-07-04T10:15:28;3.93;;;1.30;;
15230;SDS011;32569;51.762;8.564;2022-07-04T10:17:56;2.40;;;1.40;;
15230;SDS011;32569;51.762;8.564;2022-07-04T10:20:23;2.47;;;1.67;;
15230;SDS011;32569;51.762;8.564;2022-07-04T10:22:50;2.87;;;1.37;;
15230;SDS011;32569;51.762;8.564;2022-07-04T10:25:16;1.87;;;1.33;;
15230;SDS011;32569;51.762;8.564;2022-07-04T10:27:43;1.77;;;1.07;;
15230;SDS011;32569;51.762;8.564;2022-07-04T10:30:15;2.90;;;1.20;;
15230;SDS011;32569;51.762;8.564;2022-07-04T10:32:43;1.70;;;1.30;;
15230;SDS011;32569;51.762;8.564;2022-07-04T10:35:14;1.80;;;1.30;;
15230;SDS011;32569;51.762;8.564;2022-07-04T10:38:03;6.27;;;1.50;;
15230;SDS011;32569;51.762;8.564;2022-07-04T10:40:38;1.70;;;1.27;;
15230;SDS011;32569;51.762;8.564;2022-07-04T10:46:23;6.57;;;1.50;;
15230;SDS011;32569;51.762;8.564;2022-07-04T10:48:55;1.80;;;1.10;;
15230;SDS011;32569;51.762;8.564;2022-07-04T10:51:36;2.53;;;1.10;;
15230;SDS011;32569;51.762;8.564;2022-07-04T10:54:05;5.03;;;1.40;;
15230;SDS011;32569;51.762;8.564;2022-07-04T10:56:43;1.27;;;1.17;;
15230;SDS011;32569;51.762;8.564;2022-07-04T10:59:13;2.10;;;1.20;;
15230;SDS011;32569;51.762;8.564;2022-07-04T11:01:48;1.70;;;1.53;;
15230;SDS011;32569;51.762;8.564;2022-07-04T11:07:14;2.70;;;1.30;;
15230;SDS011;32569;51.762;8.564;2022-07-04T11:09:41;1.87;;;1.50;;
15230;SDS011;32569;51.762;8.564;2022-07-04T11:12:08;2.30;;;1.13;;
15230;SDS011;32569;51.762;8.564;2022-07-04T11:14:36;1.80;;;1.30;;
15230;SDS011;32569;51.762;8.564;2022-07-04T11:17:06;1.40;;;1.20;;
15230;SDS011;32569;51.762;8.564;2022-07-04T11:19:33;2.27;;;1.13;;
15230;SDS011;32569;51.762;8.564;2022-07-04T11:22:01;2.10;;;1.20;;
15230;SDS011;32569;51.762;8.564;2022-07-04T11:24:30;1.63;;;1.20;;
15230;SDS011;32569;51.762;8.564;2022-07-04T11:26:57;2.07;;;1.20;;
15230;SDS011;32569;51.762;8.564;2022-07-04T11:29:25;1.20;;;1.10;;
15230;SDS011;32569;51.762;8.564;2022-07-04T11:31:52;2.90;;;1.10;;
15230;SDS011;32569;51.762;8.564;2022-07-04T11:34:20;2.60;;;1.30;;
15230;SDS011;32569;51.762;8.564;2022-07-04T11:36:48;1.47;;;1.23;;
15230;SDS011;32569;51.762;8.564;2022-07-04T11:39:16;3.30;;;1.30;;
15230;SDS011;32569;51.762;8.564;2022-07-04T11:41:46;1.30;;;1.20;;
15230;SDS011;32569;51.762;8.564;2022-07-04T11:44:34;1.50;;;1.00;;
15230;SDS011;32569;51.762;8.564;2022-07-04T11:47:20;2.33;;;1.13;;
15230;SDS011;32569;51.762;8.564;2022-07-04T11:49:50;2.00;;;1.23;;
15230;SDS011;32569;51.762;8.564;2022-07-04T11:52:18;1.80;;;1.20;;
15230;SDS011;32569;51.762;8.564;2022-07-04T11:54:47;1.07;;;1.00;;
15230;SDS011;32569;51.762;8.564;2022-07-04T11:57:15;2.00;;;1.10;;
15230;SDS011;32569;51.762;8.564;2022-07-04T11:59:51;3.77;;;1.70;;
15230;SDS011;32569;51.762;8.564;2022-07-04T12:02:22;2.27;;;1.07;;
15230;SDS011;32569;51.762;8.564;2022-07-04T12:04:50;1.90;;;1.40;;
15230;SDS011;32569;51.762;8.564;2022-07-04T12:07:17;2.37;;;1.67;;
15230;SDS011;32569;51.762;8.564;2022-07-04T12:09:46;2.00;;;1.40;;
15230;SDS011;32569;51.762;8.564;2022-07-04T12:12:13;2.90;;;1.50;;
15230;SDS011;32569;51.762;8.564;2022-07-04T12:14:56;1.40;;;1.30;;
15230;SDS011;32569;51.762;8.564;2022-07-04T12:17:31;2.17;;;1.10;;
15230;SDS011;32569;51.762;8.564;2022-07-04T12:20:01;2.13;;;1.20;;
15230;SDS011;32569;51.762;8.564;2022-07-04T12:22:35;2.80;;;1.40;;
15230;SDS011;32569;51.762;8.564;2022-07-04T12:25:04;2.23;;;1.17;;
15230;SDS011;32569;51.762;8.564;2022-07-04T12:27:33;1.33;;;1.23;;
15230;SDS011;32569;51.762;8.564;2022-07-04T12:30:01;2.77;;;1.30;;
15230;SDS011;32569;51.762;8.564;2022-07-04T12:32:45;2.27;;;1.33;;
15230;SDS011;32569;51.762;8.564;2022-07-04T12:35:33;1.57;;;1.20;;
15230;SDS011;32569;51.762;8.564;2022-07-04T12:38:02;1.90;;;1.47;;
15230;SDS011;32569;51.762;8.564;2022-07-04T12:40:29;1.47;;;1.30;;
15230;SDS011;32569;51.762;8.564;2022-07-04T12:42:56;1.20;;;1.20;;
15230;SDS011;32569;51.762;8.564;2022-07-04T12:45:23;1.57;;;1.40;;
15230;SDS011;32569;51.762;8.564;2022-07-04T12:47:51;2.07;;;1.20;;
15230;SDS011;32569;51.762;8.564;2022-07-04T12:50:24;1.47;;;1.20;;
15230;SDS011;32569;51.762;8.564;2022-07-04T12:52:53;1.40;;;1.30;;
15230;SDS011;32569;51.762;8.564;2022-07-04T12:55:19;1.87;;;1.40;;
15230;SDS011;32569;51.762;8.564;2022-07-04T12:57:46;2.30;;;1.07;;
15230;SDS011;32569;51.762;8.564;2022-07-04T13:00:13;2.80;;;1.40;;
15230;SDS011;32569;51.762;8.564;2022-07-04T13:02:40;0.87;;;0.87;;
15230;SDS011;32569;51.762;8.564;2022-07-04T13:05:06;1.70;;;1.20;;
15230;SDS011;32569;51.762;8.564;2022-07-04T13:07:33;1.37;;;1.27;;
15230;SDS011;32569;51.762;8.564;2022-07-04T13:10:01;1.40;;;0.90;;
15230;SDS011;32569;51.762;8.564;2022-07-04T13:12:28;3.53;;;1.20;;
15230;SDS011;32569;51.762;8.564;2022-07-04T13:14:55;0.93;;;0.93;;
15230;SDS011;32569;51.762;8.564;2022-07-04T13:17:23;1.20;;;1.10;;
15230;SDS011;32569;51.762;8.564;2022-07-04T13:19:50;1.40;;;1.30;;
15230;SDS011;32569;51.762;8.564;2022-07-04T13:22:18;1.30;;;1.17;;
15230;SDS011;32569;51.762;8.564;2022-07-04T13:24:45;2.17;;;1.20;;
15230;SDS011;32569;51.762;8.564;2022-07-04T13:27:13;2.33;;;1.30;;
15230;SDS011;32569;51.762;8.564;2022-07-04T13:29:40;1.40;;;1.30;;
15230;SDS011;32569;51.762;8.564;2022-07-04T13:32:06;2.23;;;1.37;;
15230;SDS011;32569;51.762;8.564;2022-07-04T13:34:34;1.10;;;1.07;;
15230;SDS011;32569;51.762;8.564;2022-07-04T13:37:01;3.03;;;1.20;;
15230;SDS011;32569;51.762;8.564;2022-07-04T13:39:28;2.00;;;1.00;;
15230;SDS011;32569;51.762;8.564;2022-07-04T13:41:54;1.50;;;1.10;;
15230;SDS011;32569;51.762;8.564;2022-07-04T13:44:23;1.03;;;0.93;;
15230;SDS011;32569;51.762;8.564;2022-07-04T13:46:49;1.37;;;1.10;;
15230;SDS011;32569;51.762;8.564;2022-07-04T13:49:16;1.77;;;1.30;;
15230;SDS011;32569;51.762;8.564;2022-07-04T13:51:43;1.93;;;1.20;;
15230;SDS011;32569;51.762;8.564;2022-07-04T13:54:10;1.70;;;1.20;;
15230;SDS011;32569;51.762;8.564;2022-07-04T13:56:36;2.53;;;1.07;;
15230;SDS011;32569;51.762;8.564;2022-07-04T13:59:03;2.90;;;1.20;;
15230;SDS011;32569;51.762;8.564;2022-07-04T14:01:31;2.03;;;1.20;;
15230;SDS011;32569;51.762;8.564;2022-07-04T14:03:58;2.63;;;1.20;;
15230;SDS011;32569;51.762;8.564;2022-07-04T14:06:25;1.90;;;1.10;;
15230;SDS011;32569;51.762;8.564;2022-07-04T14:08:51;1.10;;;1.00;;
15230;SDS011;32569;51.762;8.564;2022-07-04T14:11:18;1.80;;;1.10;;
15230;SDS011;32569;51.762;8.564;2022-07-04T14:13:45;1.10;;;1.10;;
15230;SDS011;32569;51.762;8.564;2022-07-04T14:16:11;1.63;;;1.20;;
15230;SDS011;32569;51.762;8.564;2022-07-04T14:18:40;1.40;;;1.30;;
15230;SDS011;32569;51.762;8.564;2022-07-04T14:21:06;1.47;;;1.10;;
15230;SDS011;32569;51.762;8.564;2022-07-04T14:23:33;2.60;;;1.10;;
15230;SDS011;32569;51.762;8.564;2022-07-04T14:26:06;1.27;;;1.13;;
15230;SDS011;32569;51.762;8.564;2022-07-04T14:28:33;2.30;;;1.30;;
15230;SDS011;32569;51.762;8.564;2022-07-04T14:31:00;1.60;;;1.50;;
15230;SDS011;32569;51.762;8.564;2022-07-04T14:33:26;1.10;;;1.10;;
15230;SDS011;32569;51.762;8.564;2022-07-04T14:35:54;2.37;;;1.20;;
15230;SDS011;32569;51.762;8.564;2022-07-04T14:38:21;2.17;;;1.10;;
15230;SDS011;32569;51.762;8.564;2022-07-04T14:40:48;3.57;;;1.10;;
15230;SDS011;32569;51.762;8.564;2022-07-04T14:43:15;2.80;;;1.07;;
15230;SDS011;32569;51.762;8.564;2022-07-04T14:45:43;2.63;;;0.97;;
15230;SDS011;32569;51.762;8.564;2022-07-04T14:48:12;4.87;;;1.30;;
15230;SDS011;32569;51.762;8.564;2022-07-04T14:50:39;3.57;;;1.00;;
15230;SDS011;32569;51.762;8.564;2022-07-04T14:53:07;1.40;;;0.87;;
15230;SDS011;32569;51.762;8.564;2022-07-04T14:55:33;1.20;;;1.10;;
15230;SDS011;32569;51.762;8.564;2022-07-04T14:58:00;2.00;;;1.13;;
15230;SDS011;32569;51.762;8.564;2022-07-04T15:00:26;0.90;;;0.90;;